Terminal Aerodrome Forecast
Issued by NWS

Home | Current Version | Previous Version | Text Only | Print | Product List | Glossary On
Versions: 1 2 3 4 5 6 7 8 9 10 11 12 13 14 15 16 17 18 19 20 21 22 23 24 25
000
FTUS45 KVEF 212331
TAFBIH
TAF
KBIH 212331Z 2200/2224 VRB05KT P6SM SCT012
     FM220500 17009KT P6SM VCSH SCT020 BKN060
     FM221000 15007KT P6SM -RA SCT010 BKN020
      TEMPO 2212/2216 5SM -RA SCT005 BKN010
     FM221600 17014G24KT P6SM -RA SCT005 OVC020
      TEMPO 2216/2220 4SM RA OVC015
     FM222000 16014G24KT P6SM RA OVC015=

USA.gov is the U.S. government's official web portal to all federal, state and local government web resources and services.